createdAt,value
2022-07-25T00:00:21.549Z,2.47
2022-07-25T00:02:47.717Z,2.38
2022-07-25T00:05:14.663Z,2.22
2022-07-25T00:07:40.856Z,2.40
2022-07-25T00:10:07.721Z,2.55
2022-07-25T00:12:34.075Z,2.25
2022-07-25T00:15:00.290Z,2.67
2022-07-25T00:17:26.451Z,2.33
2022-07-25T00:19:52.664Z,2.28
2022-07-25T00:22:18.959Z,2.40
2022-07-25T00:24:45.154Z,2.30
2022-07-25T00:27:11.308Z,2.85
2022-07-25T00:29:37.466Z,2.38
2022-07-25T00:32:04.244Z,2.33
2022-07-25T00:34:30.431Z,2.38
2022-07-25T00:36:56.609Z,2.22
2022-07-25T00:39:22.831Z,3.42
2022-07-25T00:41:49.009Z,2.40
2022-07-25T00:44:28.484Z,2.45
2022-07-25T00:46:55.178Z,2.47
2022-07-25T00:49:21.904Z,2.22
2022-07-25T00:51:48.102Z,2.45
2022-07-25T00:54:15.250Z,2.33
2022-07-25T00:56:42.282Z,2.50
2022-07-25T00:59:08.759Z,2.50
2022-07-25T01:01:35.681Z,2.47
2022-07-25T01:04:02.075Z,2.35
2022-07-25T01:06:28.632Z,2.40
2022-07-25T01:08:55.314Z,2.47
2022-07-25T01:11:22.200Z,2.50
2022-07-25T01:13:48.875Z,2.25
2022-07-25T01:16:15.221Z,2.38
2022-07-25T01:18:41.633Z,2.60
2022-07-25T01:21:08.091Z,2.35
2022-07-25T01:23:34.289Z,2.13
2022-07-25T01:26:00.513Z,2.17
2022-07-25T01:28:26.726Z,2.55
2022-07-25T01:30:52.965Z,2.30
2022-07-25T01:33:21.161Z,2.22
2022-07-25T01:35:48.439Z,2.55
2022-07-25T01:38:15.280Z,2.75
2022-07-25T01:40:42.134Z,2.55
2022-07-25T01:43:09.005Z,2.28
2022-07-25T01:45:35.279Z,2.10
2022-07-25T01:48:01.600Z,2.10
2022-07-25T01:50:27.837Z,2.35
2022-07-25T01:52:54.056Z,2.10
2022-07-25T01:55:20.498Z,2.20
2022-07-25T01:57:49.918Z,1.95
2022-07-25T02:00:17.353Z,2.22
2022-07-25T02:02:44.649Z,2.10
2022-07-25T02:05:12.531Z,2.17
2022-07-25T02:07:39.035Z,2.30
2022-07-25T02:10:07.418Z,2.10
2022-07-25T02:12:33.723Z,2.38
2022-07-25T02:15:00.236Z,2.17
2022-07-25T02:17:26.519Z,2.33
2022-07-25T02:19:52.729Z,2.00
2022-07-25T02:22:18.912Z,2.33
2022-07-25T02:24:45.120Z,2.35
2022-07-25T02:27:11.297Z,2.63
2022-07-25T02:29:37.457Z,2.33
2022-07-25T02:32:03.879Z,2.10
2022-07-25T02:34:30.034Z,2.50
2022-07-25T02:36:56.214Z,1.90
2022-07-25T02:39:22.432Z,2.15
2022-07-25T02:41:48.609Z,2.33
2022-07-25T02:44:14.762Z,2.30
2022-07-25T02:46:40.922Z,2.30
2022-07-25T02:49:07.176Z,2.83
2022-07-25T02:51:33.404Z,2.40
2022-07-25T02:53:59.554Z,2.42
2022-07-25T02:56:29.846Z,2.40
2022-07-25T02:58:56.769Z,2.42
2022-07-25T03:01:22.971Z,2.40
2022-07-25T03:03:49.248Z,2.47
2022-07-25T03:06:15.572Z,2.50
2022-07-25T03:08:41.724Z,2.25
2022-07-25T03:11:07.893Z,2.20
2022-07-25T03:13:34.044Z,2.50
2022-07-25T03:16:00.401Z,2.35
2022-07-25T03:18:26.552Z,2.33
2022-07-25T03:20:52.731Z,2.70
2022-07-25T03:23:18.922Z,2.45
2022-07-25T03:25:45.104Z,2.78
2022-07-25T03:28:11.259Z,2.40
2022-07-25T03:30:37.467Z,2.60
2022-07-25T03:33:03.706Z,2.50
2022-07-25T03:35:29.867Z,2.80
2022-07-25T03:37:56.006Z,2.47
2022-07-25T03:40:22.401Z,2.70
2022-07-25T03:42:48.552Z,2.78
2022-07-25T03:45:14.701Z,3.03
2022-07-25T03:47:40.860Z,3.05
2022-07-25T03:50:07.235Z,2.53
2022-07-25T03:52:33.390Z,2.42
2022-07-25T03:54:59.547Z,2.53
2022-07-25T03:57:25.712Z,3.00
2022-07-25T03:59:51.978Z,2.55
2022-07-25T04:02:18.307Z,2.75
2022-07-25T04:04:44.540Z,2.60
2022-07-25T04:07:10.747Z,2.78
2022-07-25T04:09:36.915Z,2.70
2022-07-25T04:12:03.328Z,2.70
2022-07-25T04:14:29.486Z,2.47
2022-07-25T04:16:55.733Z,2.65
2022-07-25T04:19:21.940Z,2.63
2022-07-25T04:21:48.560Z,2.40
2022-07-25T04:24:14.726Z,3.30
2022-07-25T04:26:40.866Z,2.50
2022-07-25T04:29:07.068Z,2.20
2022-07-25T04:31:33.426Z,3.00
2022-07-25T04:33:59.850Z,2.60
2022-07-25T04:36:26.748Z,3.00
2022-07-25T04:38:53.750Z,3.08
2022-07-25T04:41:19.938Z,2.55
2022-07-25T04:43:48.697Z,2.20
2022-07-25T04:46:21.928Z,3.30
2022-07-25T04:48:48.550Z,3.03
2022-07-25T04:51:14.983Z,3.20
2022-07-25T04:53:41.135Z,3.30
2022-07-25T04:56:07.493Z,3.08
2022-07-25T04:58:34.025Z,3.20
2022-07-25T05:01:00.248Z,2.47
2022-07-25T05:03:26.443Z,2.65
2022-07-25T05:05:52.842Z,2.85
2022-07-25T05:08:18.988Z,3.10
2022-07-25T05:10:45.148Z,2.95
2022-07-25T05:13:11.307Z,2.63
2022-07-25T05:15:39.306Z,2.60
2022-07-25T05:18:05.561Z,2.28
2022-07-25T05:20:31.871Z,2.20
2022-07-25T05:22:58.068Z,2.30
2022-07-25T05:25:25.418Z,2.65
2022-07-25T05:27:54.415Z,2.42
2022-07-25T05:30:20.587Z,2.20
2022-07-25T05:32:46.733Z,11.43
2022-07-25T05:35:13.631Z,2.80
2022-07-25T05:37:40.036Z,2.40
2022-07-25T05:40:07.665Z,3.00
2022-07-25T05:42:34.031Z,2.75
2022-07-25T05:45:00.568Z,2.53
2022-07-25T05:47:26.736Z,2.58
2022-07-25T05:49:52.885Z,2.58
2022-07-25T05:52:19.221Z,2.83
2022-07-25T05:54:45.392Z,2.85
2022-07-25T05:57:11.528Z,2.80
2022-07-25T05:59:37.699Z,3.22
2022-07-25T11:23:58.717Z,6.93
2022-07-25T11:26:24.874Z,6.43
2022-07-25T11:28:51.094Z,6.63
2022-07-25T11:31:18.713Z,6.72
2022-07-25T11:33:48.680Z,7.18
2022-07-25T11:36:15.463Z,6.85
2022-07-25T11:38:42.502Z,7.03
2022-07-25T11:41:08.763Z,7.05
2022-07-25T11:43:34.902Z,6.00
2022-07-25T11:46:05.133Z,6.43
2022-07-25T11:48:40.141Z,6.45
2022-07-25T11:51:18.339Z,6.05
2022-07-25T11:53:49.748Z,6.32
2022-07-25T11:59:08.128Z,5.65
2022-07-25T12:01:39.515Z,6.00
2022-07-25T12:04:17.281Z,6.38
2022-07-25T12:06:48.603Z,5.97
2022-07-25T12:09:19.874Z,5.97
2022-07-25T12:11:47.916Z,5.65
2022-07-25T12:14:14.239Z,6.22
2022-07-25T12:16:40.698Z,6.53
2022-07-25T12:19:18.908Z,5.97
2022-07-25T12:21:45.418Z,6.13
2022-07-25T12:24:11.591Z,6.60
2022-07-25T12:26:37.966Z,5.65
2022-07-25T12:29:04.445Z,6.30
2022-07-25T12:31:31.006Z,6.05
2022-07-25T12:33:57.224Z,6.05
2022-07-25T12:36:23.412Z,5.90
2022-07-25T12:38:49.578Z,6.55
2022-07-25T12:41:17.978Z,6.10
2022-07-25T12:43:44.925Z,5.82
2022-07-25T12:46:11.551Z,5.88
2022-07-25T12:48:37.839Z,5.78
2022-07-25T12:51:04.114Z,6.40
2022-07-25T12:53:30.283Z,6.28
2022-07-25T12:55:56.496Z,6.20
2022-07-25T12:58:22.645Z,6.60
2022-07-25T13:00:49.417Z,6.10
2022-07-25T13:03:16.049Z,6.18
2022-07-25T13:05:42.413Z,5.85
2022-07-25T13:08:08.562Z,6.20
2022-07-25T13:10:34.754Z,5.85
2022-07-25T13:13:00.913Z,5.85
2022-07-25T13:15:28.348Z,6.18
2022-07-25T13:17:54.580Z,5.60
2022-07-25T13:20:20.782Z,6.25
2022-07-25T13:22:46.940Z,5.55
2022-07-25T13:25:13.255Z,5.88
2022-07-25T13:27:39.418Z,5.60
2022-07-25T13:30:07.195Z,5.88
2022-07-25T13:32:34.099Z,5.63
2022-07-25T13:35:00.289Z,5.45
2022-07-25T13:37:26.432Z,5.60
2022-07-25T13:39:52.644Z,5.75
2022-07-25T13:42:18.842Z,5.55
2022-07-25T13:44:45.022Z,6.22
2022-07-25T13:47:11.396Z,5.57
2022-07-25T13:49:37.676Z,5.30
2022-07-25T13:52:04.363Z,5.38
2022-07-25T13:54:30.550Z,5.40
2022-07-25T13:56:56.699Z,5.05
2022-07-25T13:59:22.908Z,5.50
2022-07-25T14:01:50.515Z,5.50
2022-07-25T14:04:17.116Z,5.70
2022-07-25T14:06:43.471Z,6.03
2022-07-25T14:09:09.933Z,5.82
2022-07-25T14:11:36.485Z,5.30
2022-07-25T14:14:02.696Z,5.68
2022-07-25T14:16:29.238Z,6.03
2022-07-25T14:18:55.824Z,5.10
2022-07-25T14:21:22.027Z,5.93
2022-07-25T14:23:48.786Z,5.25
2022-07-25T14:26:14.940Z,5.68
2022-07-25T14:28:41.099Z,5.75
2022-07-25T14:31:07.574Z,4.72
2022-07-25T14:33:37.982Z,4.95
2022-07-25T14:36:04.245Z,5.68
2022-07-25T14:38:31.108Z,5.20
2022-07-25T14:40:57.263Z,5.18
2022-07-25T14:43:23.450Z,5.50
2022-07-25T14:45:49.646Z,5.13
2022-07-25T14:48:15.815Z,5.75
2022-07-25T14:50:42.058Z,5.20
2022-07-25T14:53:08.280Z,5.70
2022-07-25T14:55:34.431Z,4.97
2022-07-25T14:58:02.649Z,4.95
2022-07-25T15:00:29.779Z,5.20
2022-07-25T15:02:56.067Z,4.60
2022-07-25T15:05:22.478Z,5.38
2022-07-25T15:07:48.655Z,5.10
2022-07-25T15:10:14.824Z,5.10
2022-07-25T15:12:40.999Z,5.13
2022-07-25T15:15:07.491Z,5.38
2022-07-25T15:17:33.836Z,4.70
2022-07-25T15:20:00.279Z,4.70
2022-07-25T15:22:26.459Z,5.10
2022-07-25T15:27:38.716Z,5.45
2022-07-25T15:30:06.325Z,5.35
2022-07-25T15:32:32.667Z,5.30
2022-07-25T15:34:59.453Z,5.25
2022-07-25T15:37:25.610Z,5.10
2022-07-25T15:39:51.838Z,5.15
2022-07-25T15:42:17.978Z,5.40
2022-07-25T15:44:44.151Z,5.40
2022-07-25T15:47:10.684Z,5.15
2022-07-25T15:49:37.519Z,5.38
2022-07-25T15:52:04.172Z,5.85
2022-07-25T15:54:30.476Z,5.55
2022-07-25T15:56:56.735Z,4.78
2022-07-25T15:59:23.153Z,5.32
2022-07-25T16:01:49.326Z,5.20
2022-07-25T16:04:15.700Z,5.38
2022-07-25T16:06:41.976Z,5.13
2022-07-25T16:09:08.511Z,5.72
2022-07-25T16:11:35.974Z,5.00
2022-07-25T16:14:02.126Z,5.13
2022-07-25T16:16:28.361Z,5.45
2022-07-25T16:18:54.580Z,5.43
2022-07-25T16:21:20.848Z,4.82
2022-07-25T16:23:47.001Z,5.25
2022-07-25T16:26:13.615Z,4.90
2022-07-25T16:28:40.087Z,5.40
2022-07-25T16:31:07.325Z,6.00
2022-07-25T16:33:33.614Z,5.97
2022-07-25T16:35:59.874Z,7.55
2022-07-25T16:38:27.511Z,6.78
2022-07-25T16:40:53.671Z,6.38
2022-07-25T16:43:19.815Z,5.80
2022-07-25T16:45:46.011Z,6.10
2022-07-25T16:48:12.156Z,6.93
2022-07-25T16:50:38.784Z,6.70
2022-07-25T16:53:05.033Z,6.90
2022-07-25T16:55:31.296Z,7.10
2022-07-25T16:57:58.755Z,7.20
2022-07-25T17:00:24.935Z,9.55
2022-07-25T17:02:51.188Z,8.02
2022-07-25T17:05:17.772Z,8.30
2022-07-25T17:07:44.013Z,8.70
2022-07-25T17:10:10.589Z,8.65
2022-07-25T17:12:37.028Z,8.75
2022-07-25T17:15:03.986Z,8.77
2022-07-25T17:17:30.166Z,7.88
2022-07-25T17:19:59.863Z,7.55
2022-07-25T17:22:26.424Z,7.30
2022-07-25T17:24:52.609Z,7.90
2022-07-25T17:27:18.822Z,6.90
2022-07-25T17:29:45.013Z,7.35
2022-07-25T17:32:11.256Z,6.35
2022-07-25T17:34:37.417Z,6.65
2022-07-25T17:37:05.922Z,6.25
2022-07-25T17:39:33.623Z,6.53
2022-07-25T17:42:00.098Z,6.22
2022-07-25T17:44:26.411Z,5.68
2022-07-25T17:46:53.901Z,7.60
2022-07-25T17:49:21.825Z,7.03
2022-07-25T17:51:48.202Z,7.25
2022-07-25T17:54:14.522Z,7.03
2022-07-25T17:56:41.980Z,7.88
2022-07-25T17:59:08.714Z,7.70
2022-07-25T18:01:34.885Z,8.32
2022-07-25T18:04:01.203Z,8.43
2022-07-25T18:06:30.052Z,9.27
2022-07-25T18:08:56.461Z,8.80
2022-07-25T18:11:22.693Z,9.07
2022-07-25T18:13:48.913Z,9.65
2022-07-25T18:16:15.334Z,9.27
2022-07-25T18:18:41.584Z,10.63
2022-07-25T18:21:07.742Z,10.50
2022-07-25T18:23:33.961Z,10.07
2022-07-25T18:26:00.168Z,11.20
2022-07-25T18:28:26.352Z,10.20
2022-07-25T18:30:52.712Z,10.52
2022-07-25T18:33:20.327Z,9.05
2022-07-25T18:35:46.561Z,9.05
2022-07-25T18:38:12.798Z,10.20
2022-07-25T18:40:39.071Z,9.65
2022-07-25T18:43:08.691Z,8.57
2022-07-25T18:45:37.385Z,8.50
2022-07-25T18:48:05.915Z,9.15
2022-07-25T18:50:32.119Z,9.38
2022-07-25T18:52:59.245Z,9.38
2022-07-25T18:55:25.474Z,9.50
2022-07-25T18:57:51.709Z,9.52
2022-07-25T19:00:18.320Z,8.85
2022-07-25T19:02:44.462Z,8.82
2022-07-25T19:05:10.726Z,8.38
2022-07-25T19:07:37.091Z,8.88
2022-07-25T19:10:03.841Z,7.68
2022-07-25T19:12:29.996Z,8.13
2022-07-25T19:14:56.527Z,8.23
2022-07-25T19:17:24.049Z,7.65
2022-07-25T19:19:51.195Z,7.32
2022-07-25T19:22:17.416Z,7.45
2022-07-25T19:24:44.245Z,7.70
2022-07-25T19:27:11.004Z,8.57
2022-07-25T19:29:37.606Z,7.65
2022-07-25T19:32:03.965Z,8.38
2022-07-25T19:34:30.402Z,8.15
2022-07-25T19:36:56.911Z,8.18
2022-07-25T19:39:24.597Z,9.75
2022-07-25T19:41:52.113Z,8.50
2022-07-25T19:44:18.464Z,8.45
2022-07-25T19:46:45.156Z,7.97
2022-07-25T19:49:11.445Z,7.68
2022-07-25T19:51:37.614Z,8.55
2022-07-25T19:54:04.551Z,8.00
2022-07-25T19:56:31.688Z,8.95
2022-07-25T19:58:58.221Z,8.48
2022-07-25T20:01:24.602Z,9.02
2022-07-25T20:03:50.825Z,9.30
2022-07-25T20:06:19.870Z,8.80
2022-07-25T20:08:46.548Z,8.57
2022-07-25T20:11:12.829Z,8.73
2022-07-25T20:13:39.668Z,8.50
2022-07-25T20:16:06.029Z,8.43
2022-07-25T20:18:32.463Z,9.55
2022-07-25T20:20:58.978Z,9.60
2022-07-25T20:23:25.647Z,8.45
2022-07-25T20:25:52.298Z,8.88
2022-07-25T20:28:18.746Z,7.93
2022-07-25T20:30:44.984Z,7.60
2022-07-25T20:33:11.211Z,6.35
2022-07-25T20:35:38.591Z,6.40
2022-07-25T20:38:09.457Z,6.32
2022-07-25T20:40:36.600Z,7.68
2022-07-25T20:43:04.168Z,5.93
2022-07-25T20:45:30.543Z,5.57
2022-07-25T20:47:56.733Z,5.40
2022-07-25T20:50:22.883Z,6.78
2022-07-25T20:52:49.106Z,6.47
2022-07-25T20:55:15.430Z,6.35
2022-07-25T20:57:41.590Z,6.32
2022-07-25T21:00:08.455Z,6.95
2022-07-25T21:02:34.647Z,6.88
2022-07-25T21:05:00.858Z,6.57
2022-07-25T21:07:26.995Z,6.70
2022-07-25T21:09:53.206Z,7.10
2022-07-25T21:12:19.395Z,6.30
2022-07-25T21:14:45.581Z,6.55
2022-07-25T21:17:11.822Z,6.68
2022-07-25T21:19:38.015Z,6.50
2022-07-25T21:22:04.248Z,6.47
2022-07-25T21:24:30.546Z,6.80
2022-07-25T21:26:56.736Z,7.35
2022-07-25T21:29:22.988Z,7.07
2022-07-25T21:31:49.215Z,6.60
2022-07-25T21:34:15.894Z,7.28
2022-07-25T21:36:42.111Z,7.72
2022-07-25T21:39:08.611Z,8.27
2022-07-25T21:41:35.198Z,7.47
2022-07-25T21:44:01.576Z,7.95
2022-07-25T21:46:27.766Z,7.65
2022-07-25T21:49:13.020Z,8.18
2022-07-25T21:51:40.898Z,8.30
2022-07-25T21:54:07.401Z,8.43
2022-07-25T21:56:33.643Z,8.40
2022-07-25T21:58:59.864Z,8.40
2022-07-25T22:01:26.089Z,9.43
2022-07-25T22:03:52.749Z,8.43
2022-07-25T22:06:19.345Z,8.45
2022-07-25T22:08:45.620Z,8.30
2022-07-25T22:11:20.768Z,8.35
2022-07-25T22:13:58.554Z,9.18
2022-07-25T22:16:24.848Z,8.77
2022-07-25T22:18:51.022Z,9.20
2022-07-25T22:21:17.495Z,9.52
2022-07-25T22:23:44.608Z,8.60
2022-07-25T22:26:10.804Z,9.90
2022-07-25T22:28:36.953Z,10.05
2022-07-25T22:31:03.221Z,9.57
2022-07-25T22:33:31.089Z,10.32
2022-07-25T22:35:57.716Z,8.50
2022-07-25T22:38:24.033Z,9.85
2022-07-25T22:40:50.197Z,10.82
2022-07-25T22:43:16.377Z,9.77
2022-07-25T22:45:43.151Z,10.07
2022-07-25T22:48:09.408Z,10.25
2022-07-25T22:50:35.618Z,10.77
2022-07-25T22:53:01.784Z,10.13
2022-07-25T22:55:28.073Z,10.93
2022-07-25T22:57:54.235Z,10.10
2022-07-25T23:00:20.636Z,10.20
2022-07-25T23:02:46.834Z,11.90
2022-07-25T23:05:13.051Z,11.45
2022-07-25T23:07:39.243Z,9.48
2022-07-25T23:10:06.486Z,11.07
2022-07-25T23:12:32.659Z,10.35
2022-07-25T23:14:58.846Z,10.40
2022-07-25T23:17:25.021Z,10.32
2022-07-25T23:19:54.184Z,9.10
2022-07-25T23:22:26.700Z,9.85
2022-07-25T23:24:52.905Z,10.02
2022-07-25T23:27:19.071Z,10.32
2022-07-25T23:29:45.311Z,9.43
2022-07-25T23:32:11.506Z,9.60
2022-07-25T23:34:37.706Z,9.90
2022-07-25T23:37:04.332Z,8.52
2022-07-25T23:39:31.914Z,7.78
2022-07-25T23:41:58.807Z,7.75
2022-07-25T23:44:25.875Z,8.68
2022-07-25T23:46:54.277Z,9.20
2022-07-25T23:49:20.787Z,9.30
2022-07-25T23:51:47.046Z,9.68
2022-07-25T23:54:13.218Z,10.30
2022-07-25T23:56:39.436Z,12.15
2022-07-25T23:59:05.950Z,10.80
